Time;durP1;ratioP1;P1;durP2;ratioP2;P2;SDS_P1;SDS_P2;PMS_P1;PMS_P2;Temp;Humidity;BMP_temperature;BMP_pressure;BME280_temperature;BME280_humidity;BME280_pressure;Samples;Min_cycle;Max_cycle;Signal;HPM_P1;HPM_P2
2022/04/17 00:01:11;;;;;;;1.10;0.60;;;9.00;99.90;;;;;;5098320;28;20445;-57
2022/04/17 00:03:38;;;;;;;1.17;0.50;;;8.80;99.90;;;;;;5097601;28;20449;-53
2022/04/17 00:06:06;;;;;;;1.10;0.60;;;8.80;99.90;;;;;;5098506;28;20831;-56
2022/04/17 00:08:33;;;;;;;0.80;0.60;;;8.90;99.90;;;;;;5098387;28;20566;-54
2022/04/17 00:11:02;;;;;;;1.10;0.60;;;8.80;99.90;;;;;;5098542;28;20908;-51
2022/04/17 00:13:29;;;;;;;1.10;0.60;;;8.70;99.90;;;;;;5098220;28;20454;-51
2022/04/17 00:15:56;;;;;;;1.00;0.67;;;8.60;99.90;;;;;;5098350;28;21006;-52
2022/04/17 00:18:23;;;;;;;0.97;0.60;;;8.50;99.90;;;;;;5098465;28;20598;-55
2022/04/17 00:20:50;;;;;;;0.87;0.60;;;8.50;99.90;;;;;;5098530;28;20528;-57
2022/04/17 00:23:16;;;;;;;1.23;0.70;;;8.60;99.90;;;;;;5097982;28;20851;-56
2022/04/17 00:25:43;;;;;;;1.10;0.70;;;8.70;99.90;;;;;;5097932;28;20533;-55
2022/04/17 00:28:11;;;;;;;0.90;0.60;;;8.70;99.90;;;;;;5097822;28;20552;-56
2022/04/17 00:30:38;;;;;;;3.63;0.70;;;8.50;99.90;;;;;;5097901;28;20532;-56
2022/04/17 00:33:05;;;;;;;0.80;0.60;;;8.50;99.90;;;;;;5097289;28;20888;-55
2022/04/17 00:35:32;;;;;;;1.67;0.60;;;8.50;99.90;;;;;;5097448;28;20932;-55
2022/04/17 00:37:59;;;;;;;1.00;0.60;;;8.60;99.90;;;;;;5097341;28;20859;-52
2022/04/17 00:40:26;;;;;;;1.33;0.70;;;8.60;99.90;;;;;;5097604;28;20948;-50
2022/04/17 00:42:53;;;;;;;1.30;0.67;;;8.40;99.90;;;;;;5096943;28;20452;-54
2022/04/17 00:45:21;;;;;;;0.70;0.50;;;8.40;99.90;;;;;;5097211;28;20485;-53
2022/04/17 00:47:48;;;;;;;1.40;0.53;;;8.20;99.90;;;;;;5097679;28;20883;-53
2022/04/17 00:50:15;;;;;;;1.10;0.60;;;8.30;99.90;;;;;;5097473;28;20449;-53
2022/04/17 00:52:44;;;;;;;1.00;0.60;;;8.20;99.90;;;;;;5097907;28;20548;-50
2022/04/17 00:55:12;;;;;;;1.20;0.60;;;8.20;99.90;;;;;;5097386;28;20449;-50
2022/04/17 00:57:41;;;;;;;1.97;0.63;;;8.20;99.90;;;;;;5095669;28;20528;-54
2022/04/17 01:00:09;;;;;;;0.70;0.50;;;8.20;99.90;;;;;;5096365;28;21062;-54
2022/04/17 01:02:37;;;;;;;1.10;0.60;;;8.30;99.90;;;;;;5095772;28;20595;-55
2022/04/17 01:05:06;;;;;;;1.50;0.70;;;8.20;99.90;;;;;;5095335;28;20536;-54
2022/04/17 01:07:33;;;;;;;0.67;0.50;;;8.30;99.90;;;;;;5095414;28;20453;-50
2022/04/17 01:10:03;;;;;;;1.20;0.60;;;8.20;99.90;;;;;;5095366;28;20520;-51
2022/04/17 01:12:29;;;;;;;0.80;0.50;;;8.10;99.90;;;;;;5094987;28;20453;-55
2022/04/17 01:14:56;;;;;;;0.83;0.50;;;8.20;99.90;;;;;;5096331;28;20470;-54
2022/04/17 01:17:23;;;;;;;0.90;0.50;;;8.20;99.90;;;;;;5095853;28;20577;-56
2022/04/17 01:19:51;;;;;;;1.13;0.40;;;8.40;99.90;;;;;;5096603;28;20968;-56
2022/04/17 01:22:20;;;;;;;1.47;0.50;;;8.40;99.90;;;;;;5096386;28;20489;-54
2022/04/17 01:27:32;;;;;;;0.70;0.50;;;8.40;99.90;;;;;;5095960;28;20428;-53
2022/04/17 01:29:58;;;;;;;1.20;0.60;;;8.40;99.90;;;;;;5094963;28;20532;-51
2022/04/17 01:32:25;;;;;;;1.90;0.70;;;8.40;99.90;;;;;;5095624;28;20551;-55
2022/04/17 01:34:52;;;;;;;0.70;0.50;;;8.20;99.90;;;;;;5096845;28;20521;-52
2022/04/17 01:37:21;;;;;;;1.00;0.63;;;8.10;99.90;;;;;;5096708;28;20488;-53
2022/04/17 01:39:48;;;;;;;1.27;0.60;;;8.00;99.90;;;;;;5097084;28;20454;-55
2022/04/17 01:42:16;;;;;;;0.80;0.57;;;8.00;99.90;;;;;;5096868;28;20544;-54
2022/04/17 01:44:43;;;;;;;1.30;0.67;;;8.00;99.90;;;;;;5095619;28;20450;-55
2022/04/17 01:47:10;;;;;;;1.00;0.63;;;7.90;99.90;;;;;;5096943;28;20457;-54
2022/04/17 01:49:37;;;;;;;0.83;0.50;;;7.80;99.90;;;;;;5096885;28;20449;-53
2022/04/17 01:52:05;;;;;;;1.53;0.60;;;7.80;99.90;;;;;;5097176;28;20552;-55
2022/04/17 01:54:33;;;;;;;1.00;0.60;;;7.80;99.90;;;;;;5096226;28;20538;-50
2022/04/17 01:57:00;;;;;;;0.90;0.60;;;7.80;99.90;;;;;;5096219;28;20587;-52
2022/04/17 01:59:27;;;;;;;1.70;0.70;;;7.70;99.90;;;;;;5096112;28;20964;-55
2022/04/17 02:01:54;;;;;;;3.70;0.60;;;7.70;1.00;;;;;;5095494;28;20453;-52
2022/04/17 02:04:22;;;;;;;1.00;0.60;;;7.70;1.00;;;;;;5096290;28;20450;-56
2022/04/17 02:06:49;;;;;;;1.73;0.60;;;7.80;1.00;;;;;;5093373;28;20449;-50
2022/04/17 02:09:16;;;;;;;0.80;0.60;;;7.70;1.00;;;;;;5092429;28;20823;-53
2022/04/17 02:11:45;;;;;;;1.17;0.60;;;7.70;1.00;;;;;;5094479;28;20899;-55
2022/04/17 02:14:12;;;;;;;0.97;0.60;;;7.70;1.00;;;;;;5094043;28;20446;-55
2022/04/17 02:16:39;;;;;;;1.70;0.70;;;7.70;1.00;;;;;;5092793;28;20488;-52
2022/04/17 02:19:07;;;;;;;0.80;0.50;;;7.80;1.00;;;;;;5093472;28;20717;-55
2022/04/17 02:21:34;;;;;;;0.90;0.60;;;7.90;1.00;;;;;;5092967;28;20530;-52
2022/04/17 02:24:01;;;;;;;0.70;0.40;;;7.90;1.00;;;;;;5093689;28;20851;-51
2022/04/17 02:26:28;;;;;;;0.87;0.60;;;7.90;1.00;;;;;;5094053;28;20456;-50
2022/04/17 02:28:57;;;;;;;2.80;0.60;;;7.90;1.00;;;;;;5094180;28;20480;-53
2022/04/17 02:31:25;;;;;;;1.00;0.60;;;7.80;1.00;;;;;;5094440;28;20453;-54
2022/04/17 02:33:52;;;;;;;1.17;0.67;;;7.60;1.00;;;;;;5094524;28;20528;-55
2022/04/17 02:36:19;;;;;;;1.10;0.70;;;7.50;1.00;;;;;;5093501;28;20452;-53
2022/04/17 02:38:46;;;;;;;1.47;0.50;;;7.50;1.00;;;;;;5096034;28;20456;-56
2022/04/17 02:41:13;;;;;;;1.40;0.80;;;7.40;1.00;;;;;;5094718;28;20528;-56
2022/04/17 02:43:40;;;;;;;3.93;0.70;;;7.50;1.00;;;;;;5095134;28;20528;-49
2022/04/17 02:46:08;;;;;;;1.00;0.53;;;7.50;1.00;;;;;;5095446;28;20477;-55
2022/04/17 02:48:35;;;;;;;1.70;0.60;;;7.60;1.00;;;;;;5094595;28;20441;-53
2022/04/17 02:51:03;;;;;;;0.77;0.60;;;7.70;1.00;;;;;;5093817;28;21032;-57
2022/04/17 02:53:32;;;;;;;1.00;0.60;;;7.70;1.00;;;;;;5094132;28;20462;-55
2022/04/17 02:55:59;;;;;;;1.53;0.60;;;7.60;1.00;;;;;;5096271;28;20441;-52
2022/04/17 02:58:26;;;;;;;1.03;0.73;;;7.70;1.00;;;;;;5095718;28;20558;-54
2022/04/17 03:06:23;;;;;;;0.83;0.50;;;7.50;1.00;;;;;;5098164;28;20425;-52
2022/04/17 03:08:50;;;;;;;1.10;0.50;;;7.20;1.00;;;;;;5099664;28;20540;-54
2022/04/17 03:11:17;;;;;;;1.07;0.60;;;7.00;1.00;;;;;;5099719;28;20576;-51
2022/04/17 03:13:44;;;;;;;1.73;0.60;;;6.80;1.00;;;;;;5099635;28;20493;-55
2022/04/17 03:16:12;;;;;;;1.47;0.60;;;6.70;1.00;;;;;;5098568;28;20900;-54
2022/04/17 03:18:40;;;;;;;0.77;0.50;;;6.60;1.00;;;;;;5097814;28;20819;-49
2022/04/17 03:21:07;;;;;;;1.10;0.73;;;6.70;1.00;;;;;;5098566;28;20445;-51
2022/04/17 03:23:34;;;;;;;1.53;0.70;;;7.00;1.00;;;;;;5099009;28;20453;-49
2022/04/17 03:26:01;;;;;;;1.13;0.53;;;7.00;1.00;;;;;;5098507;28;20896;-53
2022/04/17 03:28:28;;;;;;;2.37;0.80;;;7.20;1.00;;;;;;5098190;28;20481;-54
2022/04/17 03:30:54;;;;;;;1.57;0.60;;;7.20;1.00;;;;;;5098885;28;20783;-55
2022/04/17 03:33:21;;;;;;;0.90;0.67;;;7.30;1.00;;;;;;5098643;28;20481;-56
2022/04/17 03:35:49;;;;;;;1.00;0.70;;;7.30;1.00;;;;;;5098460;28;20475;-54
2022/04/17 03:38:16;;;;;;;1.43;0.60;;;7.10;1.00;;;;;;5097660;28;20568;-56
2022/04/17 03:40:43;;;;;;;1.13;0.70;;;7.00;1.00;;;;;;5098241;28;20854;-53
2022/04/17 03:43:11;;;;;;;0.87;0.60;;;7.00;1.00;;;;;;5098271;28;20528;-52
2022/04/17 03:45:37;;;;;;;0.90;0.60;;;7.00;1.00;;;;;;5098525;28;20473;-54
2022/04/17 03:48:05;;;;;;;1.10;0.60;;;6.90;1.00;;;;;;5097940;28;20442;-51
2022/04/17 03:50:33;;;;;;;1.20;0.70;;;6.90;1.00;;;;;;5097870;28;20496;-54
2022/04/17 03:53:01;;;;;;;0.80;0.60;;;6.90;1.00;;;;;;5097417;28;20537;-52
2022/04/17 03:55:28;;;;;;;1.00;0.67;;;7.00;1.00;;;;;;5097560;28;21136;-51
2022/04/17 03:57:55;;;;;;;1.03;0.60;;;6.90;1.00;;;;;;5098517;28;20936;-53
2022/04/17 04:00:21;;;;;;;0.80;0.57;;;6.90;1.00;;;;;;5098745;28;20963;-51
2022/04/17 04:02:52;;;;;;;0.93;0.70;;;6.70;1.00;;;;;;5098819;28;20461;-54
2022/04/17 04:05:20;;;;;;;0.90;0.70;;;6.60;1.00;;;;;;5098809;28;20479;-54
2022/04/17 04:07:48;;;;;;;1.03;0.60;;;6.50;1.00;;;;;;5098463;28;20441;-54
2022/04/17 04:10:16;;;;;;;2.60;0.53;;;6.40;1.00;;;;;;5098600;28;20810;-53
2022/04/17 04:12:44;;;;;;;0.70;0.53;;;6.30;1.00;;;;;;5097484;28;20446;-54
2022/04/17 04:15:11;;;;;;;0.73;0.50;;;6.20;1.00;;;;;;5098547;28;20454;-52
2022/04/17 04:17:38;;;;;;;0.90;0.60;;;6.30;1.00;;;;;;5097720;28;20568;-54
2022/04/17 04:20:07;;;;;;;0.97;0.60;;;6.50;1.00;;;;;;5097619;28;20496;-54
2022/04/17 04:22:34;;;;;;;5.77;0.60;;;6.40;1.00;;;;;;5097985;28;20452;-51
2022/04/17 04:25:01;;;;;;;0.90;0.60;;;6.30;1.00;;;;;;5098580;28;20510;-53
2022/04/17 04:30:14;;;;;;;1.03;0.60;;;6.20;1.00;;;;;;5097912;28;20437;-52
2022/04/17 04:32:52;;;;;;;1.63;0.67;;;6.10;1.00;;;;;;5098680;28;20529;-54
2022/04/17 04:35:19;;;;;;;1.00;0.60;;;6.20;1.00;;;;;;5098429;28;20479;-54
2022/04/17 04:37:45;;;;;;;1.80;0.70;;;6.30;1.00;;;;;;5098264;28;20579;-54
2022/04/17 04:40:13;;;;;;;1.60;0.60;;;6.30;1.00;;;;;;5097947;28;20540;-50
2022/04/17 04:42:41;;;;;;;1.10;0.67;;;6.40;1.00;;;;;;5098295;28;20745;-54
2022/04/17 04:47:53;;;;;;;0.87;0.60;;;6.10;1.00;;;;;;5097353;28;20559;-54
2022/04/17 04:50:20;;;;;;;0.90;0.50;;;6.10;1.00;;;;;;5098251;28;20492;-55
2022/04/17 04:52:47;;;;;;;1.07;0.50;;;5.90;1.00;;;;;;5097619;28;20558;-51
2022/04/17 04:55:14;;;;;;;0.87;0.57;;;5.90;1.00;;;;;;5096763;28;21091;-49
2022/04/17 04:57:42;;;;;;;0.90;0.60;;;5.90;1.00;;;;;;5096954;28;20568;-53
2022/04/17 05:00:09;;;;;;;0.93;0.60;;;6.10;1.00;;;;;;5098078;28;20543;-49
2022/04/17 05:02:37;;;;;;;1.17;0.60;;;6.20;1.00;;;;;;5097062;28;20533;-52
2022/04/17 05:05:05;;;;;;;1.20;0.60;;;6.20;1.00;;;;;;5097019;28;20516;-51
2022/04/17 05:07:31;;;;;;;0.83;0.60;;;6.20;1.00;;;;;;5096872;28;20893;-50
2022/04/17 05:10:00;;;;;;;0.80;0.60;;;6.20;1.00;;;;;;5097452;28;20809;-52
2022/04/17 05:12:27;;;;;;;1.30;0.60;;;5.90;1.00;;;;;;5097271;28;20507;-52
2022/04/17 05:14:55;;;;;;;0.97;0.60;;;5.80;1.00;;;;;;5097448;28;20503;-54
2022/04/17 05:17:22;;;;;;;1.23;0.70;;;5.80;1.00;;;;;;5097106;28;20874;-51
2022/04/17 05:19:49;;;;;;;0.97;0.60;;;5.90;1.00;;;;;;5097212;28;20496;-55
2022/04/17 05:22:16;;;;;;;2.50;0.70;;;6.00;1.00;;;;;;5096717;28;20450;-51
2022/04/17 05:24:44;;;;;;;0.90;0.50;;;6.00;1.00;;;;;;5096575;28;20550;-53
2022/04/17 05:27:12;;;;;;;0.97;0.60;;;6.00;1.00;;;;;;5096797;28;20446;-53
2022/04/17 05:29:38;;;;;;;0.90;0.60;;;6.00;1.00;;;;;;5097604;28;20884;-54
2022/04/17 05:32:08;;;;;;;1.23;0.60;;;6.00;1.00;;;;;;5096929;28;20481;-51
2022/04/17 05:34:35;;;;;;;1.40;0.70;;;6.00;1.00;;;;;;5096770;28;20740;-55
2022/04/17 05:37:03;;;;;;;1.27;0.87;;;5.90;1.00;;;;;;5096926;28;20453;-51
2022/04/17 05:39:30;;;;;;;1.23;0.60;;;6.00;1.00;;;;;;5095914;28;20546;-50
2022/04/17 05:41:58;;;;;;;1.00;0.80;;;6.10;1.00;;;;;;5095003;28;20537;-49
2022/04/17 05:44:25;;;;;;;9.27;0.70;;;6.30;1.00;;;;;;5095544;28;20448;-50
2022/04/17 05:46:52;;;;;;;1.00;0.60;;;6.40;1.00;;;;;;5095591;28;20967;-53
2022/04/17 05:49:21;;;;;;;0.77;0.60;;;6.70;1.00;;;;;;5096230;28;20537;-49
2022/04/17 05:51:48;;;;;;;0.80;0.60;;;6.80;1.00;;;;;;5096567;28;20723;-51
2022/04/17 05:54:15;;;;;;;1.67;0.73;;;6.90;1.00;;;;;;5096763;28;20470;-55
2022/04/17 05:56:42;;;;;;;1.00;0.60;;;6.70;1.00;;;;;;5096652;28;20473;-55
2022/04/17 05:59:09;;;;;;;0.97;0.60;;;6.70;1.00;;;;;;5096424;28;20576;-54
2022/04/17 06:01:36;;;;;;;0.73;0.57;;;6.70;1.00;;;;;;5096478;28;20537;-52
2022/04/17 06:04:03;;;;;;;2.83;0.70;;;6.60;1.00;;;;;;5096119;28;20453;-55
2022/04/17 06:06:31;;;;;;;1.00;0.60;;;6.60;1.00;;;;;;5095788;28;20541;-51
2022/04/17 06:08:58;;;;;;;1.20;0.70;;;6.60;1.00;;;;;;5094994;28;20450;-52
2022/04/17 06:11:24;;;;;;;0.80;0.70;;;6.80;1.00;;;;;;5095941;28;20952;-53
2022/04/17 06:13:52;;;;;;;0.90;0.60;;;6.60;1.00;;;;;;5096197;28;20536;-55
2022/04/17 06:16:19;;;;;;;1.13;0.70;;;6.60;1.00;;;;;;5096355;28;20441;-55
2022/04/17 06:18:46;;;;;;;0.90;0.70;;;6.70;1.00;;;;;;5095708;28;20867;-55
2022/04/17 06:21:13;;;;;;;1.87;0.90;;;7.00;1.00;;;;;;5095380;28;20446;-48
2022/04/17 06:23:41;;;;;;;2.83;0.57;;;7.10;1.00;;;;;;5094761;28;20830;-54
2022/04/17 06:26:09;;;;;;;1.03;0.50;;;7.30;1.00;;;;;;5093300;28;20535;-49
2022/04/17 06:28:36;;;;;;;0.97;0.63;;;7.30;1.00;;;;;;5092268;28;20457;-49
2022/04/17 06:31:03;;;;;;;1.00;0.50;;;7.30;1.00;;;;;;5094430;28;20543;-53
2022/04/17 06:33:30;;;;;;;0.83;0.60;;;7.20;1.00;;;;;;5095266;28;20453;-54
2022/04/17 06:35:57;;;;;;;0.90;0.50;;;7.20;1.00;;;;;;5097969;28;20469;-54
2022/04/17 06:38:24;;;;;;;0.70;0.50;;;7.30;1.00;;;;;;5098702;28;20477;-55
2022/04/17 06:40:52;;;;;;;0.87;0.60;;;7.30;1.00;;;;;;5099005;28;20506;-53
2022/04/17 06:43:19;;;;;;;1.53;0.60;;;7.30;1.00;;;;;;5098672;28;20896;-52
2022/04/17 06:45:46;;;;;;;1.10;0.60;;;7.30;1.00;;;;;;5098646;28;20481;-55
2022/04/17 06:48:15;;;;;;;0.90;0.60;;;7.40;1.00;;;;;;5098787;28;20535;-53
2022/04/17 06:50:43;;;;;;;1.67;0.50;;;7.50;1.00;;;;;;5099672;28;20441;-49
2022/04/17 06:53:10;;;;;;;1.07;0.50;;;7.40;1.00;;;;;;5099520;28;20485;-50
2022/04/17 06:55:37;;;;;;;1.33;0.50;;;7.50;1.00;;;;;;5099793;28;20506;-52
2022/04/17 06:58:05;;;;;;;1.63;0.60;;;7.60;1.00;;;;;;5098754;28;20564;-55
2022/04/17 07:00:32;;;;;;;0.90;0.40;;;7.70;1.00;;;;;;5099796;28;20473;-54
2022/04/17 07:02:59;;;;;;;0.90;0.60;;;7.90;1.00;;;;;;5099849;28;20962;-54
2022/04/17 07:05:26;;;;;;;1.27;0.50;;;8.10;1.00;;;;;;5099881;28;20481;-49
2022/04/17 07:08:01;;;;;;;0.60;0.50;;;8.20;1.00;;;;;;5099411;28;20460;-51
2022/04/17 07:10:28;;;;;;;1.63;0.60;;;8.20;1.00;;;;;;5098226;28;20566;-52
2022/04/17 07:12:55;;;;;;;0.87;0.60;;;8.40;1.00;;;;;;5098648;28;20535;-51
2022/04/17 07:15:25;;;;;;;1.10;0.40;;;8.60;1.00;;;;;;5098766;28;20489;-53
2022/04/17 07:17:53;;;;;;;2.33;0.60;;;8.60;1.00;;;;;;5098147;28;20448;-50
2022/04/17 07:20:20;;;;;;;0.80;0.50;;;8.60;1.00;;;;;;5097518;28;20453;-50
2022/04/17 07:22:48;;;;;;;0.80;0.60;;;8.70;1.00;;;;;;5097373;28;20442;-52
2022/04/17 07:25:16;;;;;;;1.00;0.60;;;8.90;1.00;;;;;;5097349;28;20453;-55
2022/04/17 07:27:45;;;;;;;1.10;0.50;;;9.10;1.00;;;;;;5097887;28;20536;-51
2022/04/17 07:30:13;;;;;;;0.87;0.50;;;9.30;1.00;;;;;;5099026;28;20719;-53
2022/04/17 07:32:43;;;;;;;0.80;0.50;;;9.50;1.00;;;;;;5099061;28;20859;-55
2022/04/17 07:35:11;;;;;;;0.70;0.50;;;9.50;1.00;;;;;;5098706;28;20521;-53
2022/04/17 07:37:38;;;;;;;1.10;0.40;;;9.50;1.00;;;;;;5098856;28;20449;-58
2022/04/17 07:40:14;;;;;;;0.60;0.40;;;9.50;1.00;;;;;;5098345;28;20583;-54
2022/04/17 07:42:42;;;;;;;0.90;0.50;;;9.40;1.00;;;;;;5098395;28;20455;-51
2022/04/17 07:45:10;;;;;;;0.93;0.50;;;9.30;1.00;;;;;;5097558;28;21001;-56
2022/04/17 07:47:37;;;;;;;0.73;0.40;;;9.40;1.00;;;;;;5097087;28;20541;-54
2022/04/17 07:50:07;;;;;;;0.70;0.50;;;9.70;1.00;;;;;;5096460;28;20496;-54
2022/04/17 07:52:34;;;;;;;0.80;0.50;;;9.90;1.00;;;;;;5097711;28;20489;-55
2022/04/17 07:55:01;;;;;;;4.30;0.50;;;10.00;1.00;;;;;;5097767;28;20464;-51
2022/04/17 07:57:28;;;;;;;1.13;0.50;;;10.00;1.00;;;;;;5097482;28;20441;-49
2022/04/17 07:59:56;;;;;;;1.67;0.50;;;10.00;99.90;;;;;;5097398;28;20477;-54
2022/04/17 08:02:28;;;;;;;2.10;0.50;;;10.20;1.00;;;;;;5097147;28;20452;-54
2022/04/17 08:04:55;;;;;;;0.87;0.40;;;10.30;1.00;;;;;;5097322;28;20457;-51
2022/04/17 08:07:23;;;;;;;0.60;0.40;;;10.50;1.00;;;;;;5096883;28;20960;-56
2022/04/17 08:09:51;;;;;;;1.37;0.50;;;10.70;99.90;;;;;;5097224;28;20473;-51
2022/04/17 08:12:17;;;;;;;0.83;0.40;;;10.70;99.90;;;;;;5097663;28;20437;-54
2022/04/17 08:14:44;;;;;;;0.70;0.50;;;10.60;99.90;;;;;;5097384;28;20477;-55
2022/04/17 08:17:11;;;;;;;1.43;0.50;;;10.50;99.90;;;;;;5097713;28;20956;-55
2022/04/17 08:19:38;;;;;;;0.80;0.50;;;10.20;99.90;;;;;;5097987;28;20811;-53
2022/04/17 08:22:05;;;;;;;0.80;0.50;;;10.20;99.90;;;;;;5098354;28;20827;-53
2022/04/17 08:24:33;;;;;;;0.70;0.50;;;10.30;99.90;;;;;;5097889;28;20457;-53
2022/04/17 08:27:00;;;;;;;0.57;0.40;;;10.50;99.90;;;;;;5097837;28;20535;-55
2022/04/17 08:29:27;;;;;;;0.70;0.40;;;10.60;99.90;;;;;;5098194;28;20940;-54
2022/04/17 08:31:54;;;;;;;0.70;0.33;;;11.00;99.90;;;;;;5097907;28;20908;-55
2022/04/17 08:34:21;;;;;;;0.60;0.40;;;11.30;99.90;;;;;;5094177;28;20550;-56
2022/04/17 08:36:49;;;;;;;0.60;0.40;;;11.40;99.90;;;;;;5096298;28;20449;-54
2022/04/17 08:39:16;;;;;;;0.93;0.40;;;11.50;99.90;;;;;;5097258;28;20485;-51
2022/04/17 08:41:49;;;;;;;0.70;0.50;;;11.60;99.90;;;;;;5097065;28;20449;-54
2022/04/17 08:44:17;;;;;;;0.83;0.50;;;11.50;99.90;;;;;;5096487;28;20454;-54
2022/04/17 08:46:43;;;;;;;0.53;0.40;;;11.60;99.90;;;;;;5094518;28;20505;-51
2022/04/17 08:49:11;;;;;;;0.60;0.40;;;11.70;99.90;;;;;;5096677;28;20545;-56
2022/04/17 08:51:39;;;;;;;2.03;0.50;;;11.70;99.90;;;;;;5116963;28;20460;-54
2022/04/17 08:54:07;;;;;;;0.63;0.40;;;11.90;99.90;;;;;;5117874;28;20452;-54
2022/04/17 08:56:35;;;;;;;0.70;0.50;;;12.00;99.90;;;;;;5116301;28;20444;-55
2022/04/17 08:59:03;;;;;;;0.67;0.40;;;12.20;99.90;;;;;;5115100;28;20982;-55
2022/04/17 09:01:31;;;;;;;0.60;0.47;;;12.30;99.90;;;;;;5116817;28;20816;-53
2022/04/17 09:03:57;;;;;;;0.63;0.40;;;12.20;99.90;;;;;;5115681;28;20488;-51
2022/04/17 09:06:24;;;;;;;2.87;0.40;;;12.10;99.90;;;;;;5115683;28;20480;-52
2022/04/17 09:08:59;;;;;;;1.30;0.50;;;12.00;99.90;;;;;;5115709;28;20954;-54
2022/04/17 09:11:26;;;;;;;0.80;0.40;;;12.10;99.90;;;;;;5116370;28;20448;-54
2022/04/17 09:13:55;;;;;;;0.60;0.40;;;12.00;99.90;;;;;;5114554;28;20542;-55
2022/04/17 09:16:28;;;;;;;2.30;0.50;;;12.10;99.90;;;;;;5116531;28;20445;-54
2022/04/17 09:18:56;;;;;;;0.60;0.40;;;12.30;99.90;;;;;;5116284;28;20579;-55
2022/04/17 09:21:32;;;;;;;0.60;0.40;;;12.30;99.90;;;;;;5117075;28;20468;-53
2022/04/17 09:24:15;;;;;;;0.80;0.50;;;12.20;99.90;;;;;;5117004;28;20459;-53
2022/04/17 09:26:49;;;;;;;0.80;0.50;;;12.30;99.90;;;;;;5114368;28;20948;-52
2022/04/17 09:29:19;;;;;;;0.70;0.40;;;12.50;99.90;;;;;;5115133;28;20444;-51
2022/04/17 09:31:49;;;;;;;0.80;0.50;;;12.60;99.90;;;;;;5114231;28;20467;-54
2022/04/17 09:34:16;;;;;;;0.80;0.40;;;12.70;99.90;;;;;;5115475;28;20452;-52
2022/04/17 09:36:43;;;;;;;0.70;0.40;;;13.00;99.90;;;;;;5114779;28;20449;-53
2022/04/17 09:39:14;;;;;;;0.80;0.30;;;13.10;99.90;;;;;;5112924;28;20485;-52
2022/04/17 09:41:55;;;;;;;0.57;0.37;;;13.20;99.90;;;;;;5114476;28;20509;-53
2022/04/17 09:44:49;;;;;;;1.53;0.50;;;13.10;99.90;;;;;;5112014;28;20551;-54
2022/04/17 09:47:20;;;;;;;0.70;0.40;;;13.00;99.90;;;;;;5114518;28;20445;-54
2022/04/17 09:49:52;;;;;;;0.70;0.40;;;13.30;99.90;;;;;;5114628;28;20436;-52
2022/04/17 09:52:19;;;;;;;0.70;0.40;;;13.60;99.90;;;;;;5116101;28;20445;-53
2022/04/17 09:54:48;;;;;;;0.70;0.40;;;13.50;99.90;;;;;;5115557;28;20534;-55
2022/04/17 09:57:19;;;;;;;0.70;0.50;;;13.20;99.90;;;;;;5113989;28;20468;-50
2022/04/17 09:59:47;;;;;;;0.80;0.40;;;13.30;99.90;;;;;;5111331;28;20546;-53
2022/04/17 10:02:17;;;;;;;0.70;0.50;;;13.30;99.90;;;;;;5114452;28;20532;-56
2022/04/17 10:04:45;;;;;;;0.50;0.40;;;13.60;99.90;;;;;;5107300;28;20449;-53
2022/04/17 10:07:14;;;;;;;0.60;0.40;;;13.60;99.90;;;;;;5112353;28;20768;-55
2022/04/17 10:09:43;;;;;;;0.73;0.40;;;13.80;99.90;;;;;;5114746;28;20441;-53
2022/04/17 10:12:14;;;;;;;1.13;0.50;;;14.40;99.90;;;;;;5115634;28;20735;-54
2022/04/17 10:14:41;;;;;;;0.50;0.40;;;15.00;99.90;;;;;;5114118;28;20556;-49
2022/04/17 10:17:09;;;;;;;0.80;0.43;;;15.40;99.90;;;;;;5114207;28;20441;-55
2022/04/17 10:19:42;;;;;;;0.60;0.50;;;15.70;99.90;;;;;;5113589;28;20519;-55
2022/04/17 10:22:10;;;;;;;0.97;0.30;;;15.30;99.90;;;;;;5112301;28;20527;-50
2022/04/17 10:24:38;;;;;;;0.77;0.40;;;15.40;99.90;;;;;;5095054;28;20885;-55
2022/04/17 10:27:07;;;;;;;0.77;0.53;;;15.80;99.90;;;;;;5093061;28;20492;-54
2022/04/17 10:29:40;;;;;;;0.57;0.40;;;16.10;99.90;;;;;;5109956;28;20785;-55
2022/04/17 10:32:25;;;;;;;0.50;0.30;;;16.10;99.90;;;;;;5110755;28;20477;-56
2022/04/17 10:35:12;;;;;;;0.83;0.40;;;15.90;99.90;;;;;;5112128;28;20481;-51
2022/04/17 10:38:06;;;;;;;0.60;0.30;;;16.00;99.90;;;;;;5109921;28;20441;-55
2022/04/17 10:40:33;;;;;;;0.80;0.50;;;16.40;99.90;;;;;;5111942;28;20524;-55
2022/04/17 10:43:01;;;;;;;3.90;0.50;;;16.90;99.90;;;;;;5112072;28;20497;-53
2022/04/17 10:45:31;;;;;;;0.90;0.40;;;17.10;99.90;;;;;;5110397;28;20574;-54
2022/04/17 10:48:10;;;;;;;0.70;0.40;;;17.30;99.90;;;;;;5109977;28;20440;-57
2022/04/17 10:50:45;;;;;;;0.50;0.30;;;17.20;99.90;;;;;;5111534;28;20441;-58
2022/04/17 10:53:25;;;;;;;0.50;0.40;;;17.60;99.90;;;;;;5110410;28;20810;-55
2022/04/17 10:56:03;;;;;;;0.47;0.40;;;17.90;99.90;;;;;;5112719;28;20895;-56
2022/04/17 10:58:37;;;;;;;0.47;0.30;;;18.00;99.90;;;;;;5113826;28;20448;-56
2022/04/17 11:01:04;;;;;;;0.60;0.30;;;17.40;99.90;;;;;;5112577;28;20471;-57
2022/04/17 11:03:35;;;;;;;0.50;0.30;;;17.20;99.90;;;;;;5114792;28;20459;-58
2022/04/17 11:06:31;;;;;;;0.40;0.30;;;17.40;99.90;;;;;;5113599;28;20445;-57
2022/04/17 11:09:05;;;;;;;0.70;0.40;;;17.50;99.90;;;;;;5114292;28;20449;-57
2022/04/17 11:11:37;;;;;;;0.50;0.30;;;17.30;99.90;;;;;;5113942;28;20756;-58
2022/04/17 11:14:11;;;;;;;0.80;0.40;;;17.30;99.90;;;;;;5114235;28;20448;-57
2022/04/17 11:16:50;;;;;;;0.90;0.50;;;17.50;99.90;;;;;;5112187;28;20508;-58
2022/04/17 11:19:18;;;;;;;0.40;0.30;;;17.50;99.90;;;;;;5114523;28;20846;-58
2022/04/17 11:21:49;;;;;;;0.40;0.30;;;17.90;99.90;;;;;;5117266;28;20793;-58
2022/04/17 11:24:17;;;;;;;0.70;0.40;;;18.10;99.90;;;;;;5118998;28;20816;-60
2022/04/17 11:27:09;;;;;;;0.40;0.30;;;18.10;99.90;;;;;;5118129;28;20538;-56
2022/04/17 11:29:38;;;;;;;0.50;0.30;;;17.90;99.90;;;;;;5116388;28;20456;-57
2022/04/17 11:32:38;;;;;;;0.50;0.37;;;18.30;99.90;;;;;;5116051;28;20470;-58
2022/04/17 11:35:07;;;;;;;1.23;0.30;;;18.50;99.90;;;;;;5115062;28;20879;-57
2022/04/17 11:37:35;;;;;;;0.47;0.30;;;18.20;99.90;;;;;;5114805;28;20437;-57
2022/04/17 11:40:10;;;;;;;0.80;0.40;;;18.10;99.90;;;;;;5114142;28;20472;-56
2022/04/17 11:42:41;;;;;;;0.60;0.30;;;18.60;99.90;;;;;;5115794;28;20859;-54
2022/04/17 11:45:09;;;;;;;0.60;0.40;;;18.60;99.90;;;;;;5115718;28;20559;-55
2022/04/17 11:47:40;;;;;;;0.50;0.30;;;18.70;99.90;;;;;;5116223;28;20952;-57
2022/04/17 11:50:09;;;;;;;0.60;0.30;;;18.80;99.90;;;;;;5116892;28;20453;-58
2022/04/17 11:52:38;;;;;;;0.80;0.40;;;19.10;99.90;;;;;;5117479;28;20445;-55
2022/04/17 11:55:07;;;;;;;0.90;0.40;;;18.60;99.90;;;;;;5117931;28;20987;-57
2022/04/17 11:57:34;;;;;;;0.70;0.40;;;18.80;99.90;;;;;;5117532;28;20879;-55
2022/04/17 12:00:01;;;;;;;0.33;0.20;;;18.90;99.90;;;;;;5116220;28;21014;-56
2022/04/17 12:02:29;;;;;;;0.73;0.40;;;19.30;99.90;;;;;;5116560;28;20757;-55
2022/04/17 12:04:58;;;;;;;0.50;0.30;;;19.50;99.90;;;;;;5115675;28;20551;-56
2022/04/17 12:07:26;;;;;;;0.80;0.30;;;19.40;99.90;;;;;;5117479;28;20444;-54
2022/04/17 12:10:07;;;;;;;0.57;0.40;;;19.50;99.90;;;;;;5116463;28;20441;-56
2022/04/17 12:12:35;;;;;;;0.50;0.30;;;19.10;99.90;;;;;;5114386;28;20725;-57
2022/04/17 12:15:03;;;;;;;0.77;0.30;;;18.80;99.90;;;;;;5115827;28;20459;-54
2022/04/17 12:17:31;;;;;;;1.13;0.30;;;18.60;99.90;;;;;;5116479;28;20471;-56
2022/04/17 12:19:59;;;;;;;0.63;0.40;;;18.90;99.90;;;;;;5116178;28;20503;-54
2022/04/17 12:22:26;;;;;;;0.40;0.30;;;19.20;99.90;;;;;;5116815;28;20804;-56
2022/04/17 12:24:53;;;;;;;0.40;0.30;;;19.40;99.90;;;;;;5114691;28;20953;-55
2022/04/17 12:27:22;;;;;;;0.53;0.30;;;19.20;99.90;;;;;;5102897;28;20865;-57
2022/04/17 12:29:50;;;;;;;0.70;0.40;;;19.40;99.90;;;;;;5108769;28;20918;-55
2022/04/17 12:32:19;;;;;;;2.03;0.40;;;19.60;99.90;;;;;;5097222;28;20450;-56
2022/04/17 12:34:46;;;;;;;0.60;0.33;;;19.10;99.90;;;;;;5106430;28;20464;-56
2022/04/17 12:37:23;;;;;;;0.50;0.20;;;19.00;99.90;;;;;;5097527;28;20502;-57
2022/04/17 12:39:50;;;;;;;0.40;0.27;;;18.80;99.90;;;;;;5095299;28;20934;-58
2022/04/17 12:42:17;;;;;;;1.30;0.50;;;18.70;99.90;;;;;;5110753;28;20476;-57
2022/04/17 12:44:47;;;;;;;0.50;0.30;;;18.70;99.90;;;;;;5095519;28;20457;-58
2022/04/17 12:47:15;;;;;;;0.67;0.47;;;18.80;99.90;;;;;;5112831;28;20623;-58
2022/04/17 12:49:42;;;;;;;0.50;0.40;;;19.30;99.90;;;;;;5102845;28;20743;-57
2022/04/17 12:52:10;;;;;;;0.50;0.30;;;19.40;99.90;;;;;;5107382;28;20914;-57
2022/04/17 12:54:37;;;;;;;0.77;0.40;;;18.80;99.90;;;;;;5098190;28;20449;-57
2022/04/17 12:57:08;;;;;;;0.70;0.40;;;18.70;99.90;;;;;;5111497;28;20502;-57
2022/04/17 12:59:42;;;;;;;0.80;0.30;;;18.60;99.90;;;;;;5113124;28;20457;-57
2022/04/17 13:02:16;;;;;;;0.57;0.40;;;18.70;99.90;;;;;;5101416;28;20961;-57
2022/04/17 13:04:44;;;;;;;0.40;0.30;;;18.70;99.90;;;;;;5111101;28;20761;-57
2022/04/17 13:07:13;;;;;;;0.50;0.30;;;18.50;99.90;;;;;;5098311;28;20527;-56
2022/04/17 13:09:50;;;;;;;0.43;0.30;;;18.40;99.90;;;;;;5103026;28;20465;-58
2022/04/17 13:12:31;;;;;;;0.90;0.30;;;18.70;99.90;;;;;;5107246;28;20445;-58
2022/04/17 13:14:59;;;;;;;0.70;0.30;;;19.20;99.90;;;;;;5097377;28;20449;-57
2022/04/17 13:17:27;;;;;;;0.50;0.30;;;18.60;99.90;;;;;;5100587;28;20445;-58
2022/04/17 13:19:54;;;;;;;0.50;0.30;;;18.70;99.90;;;;;;5101926;28;20572;-57